sensor_id;sensor_type;location;lat;lon;timestamp;P1;durP1;ratioP1;P2;durP2;ratioP2
5718;SDS011;2884;47.734;9.244;2023-02-24T00:00:56;6.05;;;4.50;;
5718;SDS011;2884;47.734;9.244;2023-02-24T00:03:26;6.18;;;3.72;;
5718;SDS011;2884;47.734;9.244;2023-02-24T00:05:53;10.07;;;4.75;;
5718;SDS011;2884;47.734;9.244;2023-02-24T00:08:18;5.60;;;3.70;;
5718;SDS011;2884;47.734;9.244;2023-02-24T00:10:44;7.53;;;4.70;;
5718;SDS011;2884;47.734;9.244;2023-02-24T00:13:11;4.32;;;3.28;;
5718;SDS011;2884;47.734;9.244;2023-02-24T00:15:37;7.27;;;3.90;;
5718;SDS011;2884;47.734;9.244;2023-02-24T00:18:03;4.93;;;3.70;;
5718;SDS011;2884;47.734;9.244;2023-02-24T00:20:31;10.90;;;5.03;;
5718;SDS011;2884;47.734;9.244;2023-02-24T00:22:58;9.30;;;4.70;;
5718;SDS011;2884;47.734;9.244;2023-02-24T00:25:24;6.70;;;4.35;;
5718;SDS011;2884;47.734;9.244;2023-02-24T00:27:51;8.00;;;4.90;;
5718;SDS011;2884;47.734;9.244;2023-02-24T00:30:20;9.18;;;4.53;;
5718;SDS011;2884;47.734;9.244;2023-02-24T00:32:48;12.10;;;5.18;;
5718;SDS011;2884;47.734;9.244;2023-02-24T00:35:14;5.63;;;4.53;;
5718;SDS011;2884;47.734;9.244;2023-02-24T00:37:40;6.93;;;4.53;;
5718;SDS011;2884;47.734;9.244;2023-02-24T00:40:05;11.63;;;4.97;;
5718;SDS011;2884;47.734;9.244;2023-02-24T00:42:35;6.97;;;5.38;;
5718;SDS011;2884;47.734;9.244;2023-02-24T00:45:02;7.00;;;5.43;;
5718;SDS011;2884;47.734;9.244;2023-02-24T00:47:37;7.47;;;5.07;;
5718;SDS011;2884;47.734;9.244;2023-02-24T00:50:06;9.57;;;4.40;;
5718;SDS011;2884;47.734;9.244;2023-02-24T00:52:32;9.85;;;4.63;;
5718;SDS011;2884;47.734;9.244;2023-02-24T00:54:58;6.53;;;4.37;;
5718;SDS011;2884;47.734;9.244;2023-02-24T00:57:23;9.77;;;4.40;;
5718;SDS011;2884;47.734;9.244;2023-02-24T00:59:49;9.47;;;4.60;;
5718;SDS011;2884;47.734;9.244;2023-02-24T01:02:16;6.32;;;4.28;;
5718;SDS011;2884;47.734;9.244;2023-02-24T01:04:41;11.83;;;5.50;;
5718;SDS011;2884;47.734;9.244;2023-02-24T01:07:09;7.20;;;4.45;;
5718;SDS011;2884;47.734;9.244;2023-02-24T01:09:35;10.68;;;5.25;;
5718;SDS011;2884;47.734;9.244;2023-02-24T01:12:01;6.65;;;5.13;;
5718;SDS011;2884;47.734;9.244;2023-02-24T01:15:03;9.57;;;5.03;;
5718;SDS011;2884;47.734;9.244;2023-02-24T01:17:29;7.35;;;4.95;;
5718;SDS011;2884;47.734;9.244;2023-02-24T01:19:55;7.67;;;5.23;;
5718;SDS011;2884;47.734;9.244;2023-02-24T01:22:24;10.98;;;4.82;;
5718;SDS011;2884;47.734;9.244;2023-02-24T01:24:50;8.25;;;6.30;;
5718;SDS011;2884;47.734;9.244;2023-02-24T01:27:16;8.87;;;5.80;;
5718;SDS011;2884;47.734;9.244;2023-02-24T01:29:43;8.65;;;5.00;;
5718;SDS011;2884;47.734;9.244;2023-02-24T01:32:14;8.63;;;5.63;;
5718;SDS011;2884;47.734;9.244;2023-02-24T01:34:43;9.75;;;5.72;;
5718;SDS011;2884;47.734;9.244;2023-02-24T01:37:09;10.80;;;5.10;;
5718;SDS011;2884;47.734;9.244;2023-02-24T01:39:34;8.23;;;5.40;;
5718;SDS011;2884;47.734;9.244;2023-02-24T01:42:00;5.93;;;4.40;;
5718;SDS011;2884;47.734;9.244;2023-02-24T01:46:56;9.63;;;4.85;;
5718;SDS011;2884;47.734;9.244;2023-02-24T01:49:23;8.47;;;5.30;;
5718;SDS011;2884;47.734;9.244;2023-02-24T01:51:58;12.98;;;5.80;;
5718;SDS011;2884;47.734;9.244;2023-02-24T01:54:30;11.50;;;6.80;;
5718;SDS011;2884;47.734;9.244;2023-02-24T01:57:00;10.70;;;6.95;;
5718;SDS011;2884;47.734;9.244;2023-02-24T01:59:29;13.00;;;7.82;;
5718;SDS011;2884;47.734;9.244;2023-02-24T02:01:56;17.55;;;8.85;;
5718;SDS011;2884;47.734;9.244;2023-02-24T02:07:13;9.18;;;6.95;;
5718;SDS011;2884;47.734;9.244;2023-02-24T02:09:41;11.32;;;6.22;;
5718;SDS011;2884;47.734;9.244;2023-02-24T02:12:07;10.95;;;6.57;;
5718;SDS011;2884;47.734;9.244;2023-02-24T02:14:33;9.65;;;6.05;;
5718;SDS011;2884;47.734;9.244;2023-02-24T02:28:18;11.15;;;6.00;;
5718;SDS011;2884;47.734;9.244;2023-02-24T02:39:15;10.05;;;5.93;;
5718;SDS011;2884;47.734;9.244;2023-02-24T02:42:00;7.80;;;5.07;;
5718;SDS011;2884;47.734;9.244;2023-02-24T02:44:37;10.88;;;5.45;;
5718;SDS011;2884;47.734;9.244;2023-02-24T02:47:30;5.20;;;4.75;;
5718;SDS011;2884;47.734;9.244;2023-02-24T02:52:36;9.95;;;5.15;;
5718;SDS011;2884;47.734;9.244;2023-02-24T02:55:10;7.03;;;5.03;;
5718;SDS011;2884;47.734;9.244;2023-02-24T02:57:42;8.63;;;5.60;;
5718;SDS011;2884;47.734;9.244;2023-02-24T03:02:51;13.43;;;5.43;;
5718;SDS011;2884;47.734;9.244;2023-02-24T03:05:20;8.40;;;5.07;;
5718;SDS011;2884;47.734;9.244;2023-02-24T03:07:53;7.20;;;5.20;;
5718;SDS011;2884;47.734;9.244;2023-02-24T03:10:22;9.05;;;5.32;;
5718;SDS011;2884;47.734;9.244;2023-02-24T03:12:52;6.80;;;4.90;;
5718;SDS011;2884;47.734;9.244;2023-02-24T03:15:19;10.80;;;4.85;;
5718;SDS011;2884;47.734;9.244;2023-02-24T03:17:46;8.85;;;6.18;;
5718;SDS011;2884;47.734;9.244;2023-02-24T03:22:46;10.93;;;6.30;;
5718;SDS011;2884;47.734;9.244;2023-02-24T03:25:18;9.20;;;5.85;;
5718;SDS011;2884;47.734;9.244;2023-02-24T03:27:49;9.20;;;6.32;;
5718;SDS011;2884;47.734;9.244;2023-02-24T03:30:25;10.77;;;6.10;;
5718;SDS011;2884;47.734;9.244;2023-02-24T03:32:59;11.15;;;6.10;;
5718;SDS011;2884;47.734;9.244;2023-02-24T03:35:37;14.00;;;6.55;;
5718;SDS011;2884;47.734;9.244;2023-02-24T03:38:06;10.90;;;5.85;;
5718;SDS011;2884;47.734;9.244;2023-02-24T03:40:36;10.95;;;6.50;;
5718;SDS011;2884;47.734;9.244;2023-02-24T03:43:07;13.38;;;5.75;;
5718;SDS011;2884;47.734;9.244;2023-02-24T03:45:36;8.68;;;5.72;;
5718;SDS011;2884;47.734;9.244;2023-02-24T03:48:09;7.22;;;6.05;;
5718;SDS011;2884;47.734;9.244;2023-02-24T03:50:52;10.40;;;6.20;;
5718;SDS011;2884;47.734;9.244;2023-02-24T04:15:20;9.68;;;5.40;;
5718;SDS011;2884;47.734;9.244;2023-02-24T04:17:54;7.07;;;4.88;;
5718;SDS011;2884;47.734;9.244;2023-02-24T04:20:22;7.55;;;5.03;;
5718;SDS011;2884;47.734;9.244;2023-02-24T04:30:54;11.85;;;4.85;;
5718;SDS011;2884;47.734;9.244;2023-02-24T05:00:59;11.52;;;5.25;;
5718;SDS011;2884;47.734;9.244;2023-02-24T05:03:25;10.70;;;5.90;;
5718;SDS011;2884;47.734;9.244;2023-02-24T05:05:55;8.05;;;5.05;;
5718;SDS011;2884;47.734;9.244;2023-02-24T05:08:24;10.25;;;6.25;;
5718;SDS011;2884;47.734;9.244;2023-02-24T05:10:51;11.20;;;5.63;;
5718;SDS011;2884;47.734;9.244;2023-02-24T05:13:18;8.30;;;5.50;;
5718;SDS011;2884;47.734;9.244;2023-02-24T05:15:44;11.20;;;5.68;;
5718;SDS011;2884;47.734;9.244;2023-02-24T05:18:12;10.60;;;5.30;;
5718;SDS011;2884;47.734;9.244;2023-02-24T05:20:41;9.85;;;5.75;;
5718;SDS011;2884;47.734;9.244;2023-02-24T05:23:28;10.27;;;5.85;;
5718;SDS011;2884;47.734;9.244;2023-02-24T05:26:04;6.57;;;4.97;;
5718;SDS011;2884;47.734;9.244;2023-02-24T05:28:38;6.88;;;5.38;;
5718;SDS011;2884;47.734;9.244;2023-02-24T05:33:36;7.22;;;5.40;;
5718;SDS011;2884;47.734;9.244;2023-02-24T05:36:12;7.40;;;5.10;;
5718;SDS011;2884;47.734;9.244;2023-02-24T05:38:59;8.07;;;5.35;;
5718;SDS011;2884;47.734;9.244;2023-02-24T05:41:40;8.70;;;5.45;;
5718;SDS011;2884;47.734;9.244;2023-02-24T05:44:12;6.85;;;5.43;;
5718;SDS011;2884;47.734;9.244;2023-02-24T05:46:41;8.98;;;6.45;;
5718;SDS011;2884;47.734;9.244;2023-02-24T05:49:14;9.38;;;6.15;;
5718;SDS011;2884;47.734;9.244;2023-02-24T05:51:51;11.65;;;7.00;;
5718;SDS011;2884;47.734;9.244;2023-02-24T05:54:23;8.77;;;5.50;;
5718;SDS011;2884;47.734;9.244;2023-02-24T06:00:48;7.60;;;6.18;;
5718;SDS011;2884;47.734;9.244;2023-02-24T06:03:37;9.55;;;6.15;;
5718;SDS011;2884;47.734;9.244;2023-02-24T06:06:19;14.18;;;6.70;;
5718;SDS011;2884;47.734;9.244;2023-02-24T06:09:09;8.75;;;6.07;;
5718;SDS011;2884;47.734;9.244;2023-02-24T06:11:41;9.75;;;6.20;;
5718;SDS011;2884;47.734;9.244;2023-02-24T06:14:21;11.73;;;6.55;;
5718;SDS011;2884;47.734;9.244;2023-02-24T06:16:49;7.65;;;6.10;;
5718;SDS011;2884;47.734;9.244;2023-02-24T06:20:19;12.65;;;5.53;;
5718;SDS011;2884;47.734;9.244;2023-02-24T06:22:46;17.27;;;6.35;;
5718;SDS011;2884;47.734;9.244;2023-02-24T06:37:39;18.38;;;7.35;;
5718;SDS011;2884;47.734;9.244;2023-02-24T06:40:42;20.85;;;7.50;;
5718;SDS011;2884;47.734;9.244;2023-02-24T06:56:47;14.25;;;6.93;;
5718;SDS011;2884;47.734;9.244;2023-02-24T06:59:58;18.02;;;6.82;;
5718;SDS011;2884;47.734;9.244;2023-02-24T07:07:16;18.58;;;7.50;;
5718;SDS011;2884;47.734;9.244;2023-02-24T07:09:59;19.85;;;6.72;;
5718;SDS011;2884;47.734;9.244;2023-02-24T07:12:26;21.50;;;7.53;;
5718;SDS011;2884;47.734;9.244;2023-02-24T07:14:53;14.23;;;7.93;;
5718;SDS011;2884;47.734;9.244;2023-02-24T07:17:18;13.77;;;7.33;;
5718;SDS011;2884;47.734;9.244;2023-02-24T07:19:47;18.50;;;7.78;;
5718;SDS011;2884;47.734;9.244;2023-02-24T07:22:13;11.97;;;7.00;;
5718;SDS011;2884;47.734;9.244;2023-02-24T07:24:40;12.80;;;6.93;;
5718;SDS011;2884;47.734;9.244;2023-02-24T07:27:11;16.10;;;7.53;;
5718;SDS011;2884;47.734;9.244;2023-02-24T07:29:45;14.10;;;8.13;;
5718;SDS011;2884;47.734;9.244;2023-02-24T07:32:11;11.40;;;6.70;;
5718;SDS011;2884;47.734;9.244;2023-02-24T07:34:37;14.90;;;7.75;;
5718;SDS011;2884;47.734;9.244;2023-02-24T07:37:03;14.68;;;7.47;;
5718;SDS011;2884;47.734;9.244;2023-02-24T07:39:32;12.88;;;6.85;;
5718;SDS011;2884;47.734;9.244;2023-02-24T07:41:58;14.02;;;7.65;;
5718;SDS011;2884;47.734;9.244;2023-02-24T07:44:23;15.17;;;7.10;;
5718;SDS011;2884;47.734;9.244;2023-02-24T07:46:50;15.00;;;8.20;;
5718;SDS011;2884;47.734;9.244;2023-02-24T07:49:20;13.07;;;7.88;;
5718;SDS011;2884;47.734;9.244;2023-02-24T07:51:50;15.27;;;8.48;;
5718;SDS011;2884;47.734;9.244;2023-02-24T07:54:18;13.52;;;8.70;;
5718;SDS011;2884;47.734;9.244;2023-02-24T07:56:45;16.08;;;7.40;;
5718;SDS011;2884;47.734;9.244;2023-02-24T07:59:13;17.30;;;9.43;;
5718;SDS011;2884;47.734;9.244;2023-02-24T08:01:43;15.52;;;8.55;;
5718;SDS011;2884;47.734;9.244;2023-02-24T08:04:17;15.25;;;8.55;;
5718;SDS011;2884;47.734;9.244;2023-02-24T08:06:44;17.35;;;8.77;;
5718;SDS011;2884;47.734;9.244;2023-02-24T08:09:18;15.77;;;8.02;;
5718;SDS011;2884;47.734;9.244;2023-02-24T08:11:50;15.35;;;8.32;;
5718;SDS011;2884;47.734;9.244;2023-02-24T08:14:20;10.85;;;7.22;;
5718;SDS011;2884;47.734;9.244;2023-02-24T08:16:51;13.88;;;7.43;;
5718;SDS011;2884;47.734;9.244;2023-02-24T08:19:27;17.70;;;8.35;;
5718;SDS011;2884;47.734;9.244;2023-02-24T08:22:08;10.52;;;7.50;;
5718;SDS011;2884;47.734;9.244;2023-02-24T08:24:44;20.23;;;7.43;;
5718;SDS011;2884;47.734;9.244;2023-02-24T08:27:21;11.50;;;7.97;;
5718;SDS011;2884;47.734;9.244;2023-02-24T08:29:49;12.70;;;7.78;;
5718;SDS011;2884;47.734;9.244;2023-02-24T08:32:30;17.87;;;8.00;;
5718;SDS011;2884;47.734;9.244;2023-02-24T08:35:22;13.77;;;8.05;;
5718;SDS011;2884;47.734;9.244;2023-02-24T08:37:59;13.98;;;8.25;;
5718;SDS011;2884;47.734;9.244;2023-02-24T08:40:39;16.73;;;7.87;;
5718;SDS011;2884;47.734;9.244;2023-02-24T08:43:26;11.27;;;6.67;;
5718;SDS011;2884;47.734;9.244;2023-02-24T08:48:38;11.57;;;6.67;;
5718;SDS011;2884;47.734;9.244;2023-02-24T08:53:54;11.17;;;6.80;;
5718;SDS011;2884;47.734;9.244;2023-02-24T08:56:23;12.00;;;6.90;;
5718;SDS011;2884;47.734;9.244;2023-02-24T08:58:55;11.43;;;7.43;;
5718;SDS011;2884;47.734;9.244;2023-02-24T09:01:38;9.47;;;7.20;;
5718;SDS011;2884;47.734;9.244;2023-02-24T09:04:16;14.50;;;7.33;;
5718;SDS011;2884;47.734;9.244;2023-02-24T09:06:50;8.27;;;6.53;;
5718;SDS011;2884;47.734;9.244;2023-02-24T09:09:22;14.90;;;7.80;;
5718;SDS011;2884;47.734;9.244;2023-02-24T09:11:58;11.60;;;7.53;;
5718;SDS011;2884;47.734;9.244;2023-02-24T09:14:28;10.07;;;6.70;;
5718;SDS011;2884;47.734;9.244;2023-02-24T09:17:04;10.60;;;7.67;;
5718;SDS011;2884;47.734;9.244;2023-02-24T09:19:37;10.47;;;7.13;;
5718;SDS011;2884;47.734;9.244;2023-02-24T09:22:17;9.50;;;7.27;;
5718;SDS011;2884;47.734;9.244;2023-02-24T09:25:12;9.27;;;7.20;;
5718;SDS011;2884;47.734;9.244;2023-02-24T09:28:07;11.40;;;7.70;;
5718;SDS011;2884;47.734;9.244;2023-02-24T09:30:42;9.10;;;7.00;;
5718;SDS011;2884;47.734;9.244;2023-02-24T09:33:16;10.67;;;7.10;;
5718;SDS011;2884;47.734;9.244;2023-02-24T09:35:45;8.63;;;7.27;;
5718;SDS011;2884;47.734;9.244;2023-02-24T09:38:19;10.90;;;6.83;;
5718;SDS011;2884;47.734;9.244;2023-02-24T09:41:09;11.10;;;7.70;;
5718;SDS011;2884;47.734;9.244;2023-02-24T09:43:57;13.30;;;7.30;;
5718;SDS011;2884;47.734;9.244;2023-02-24T09:46:32;9.80;;;7.10;;
5718;SDS011;2884;47.734;9.244;2023-02-24T09:49:11;12.03;;;7.00;;
5718;SDS011;2884;47.734;9.244;2023-02-24T09:51:42;11.87;;;7.97;;
5718;SDS011;2884;47.734;9.244;2023-02-24T09:54:13;10.43;;;8.70;;
5718;SDS011;2884;47.734;9.244;2023-02-24T09:56:45;41.77;;;11.27;;
5718;SDS011;2884;47.734;9.244;2023-02-24T09:59:29;16.37;;;9.30;;
5718;SDS011;2884;47.734;9.244;2023-02-24T10:02:44;14.73;;;9.00;;
5718;SDS011;2884;47.734;9.244;2023-02-24T10:05:26;14.50;;;8.73;;
5718;SDS011;2884;47.734;9.244;2023-02-24T10:08:25;15.30;;;8.20;;
5718;SDS011;2884;47.734;9.244;2023-02-24T10:10:58;18.03;;;9.43;;
5718;SDS011;2884;47.734;9.244;2023-02-24T10:13:50;18.97;;;10.33;;
5718;SDS011;2884;47.734;9.244;2023-02-24T10:16:20;13.07;;;8.47;;
5718;SDS011;2884;47.734;9.244;2023-02-24T10:18:54;16.83;;;9.30;;
5718;SDS011;2884;47.734;9.244;2023-02-24T10:21:29;18.27;;;9.97;;
5718;SDS011;2884;47.734;9.244;2023-02-24T10:24:24;18.40;;;9.70;;
5718;SDS011;2884;47.734;9.244;2023-02-24T10:27:02;15.10;;;10.60;;
5718;SDS011;2884;47.734;9.244;2023-02-24T10:29:57;16.20;;;11.30;;
5718;SDS011;2884;47.734;9.244;2023-02-24T10:32:39;16.53;;;11.03;;
5718;SDS011;2884;47.734;9.244;2023-02-24T10:35:17;21.73;;;13.33;;
5718;SDS011;2884;47.734;9.244;2023-02-24T10:37:45;21.13;;;14.13;;
5718;SDS011;2884;47.734;9.244;2023-02-24T10:40:13;34.27;;;16.53;;
5718;SDS011;2884;47.734;9.244;2023-02-24T10:42:50;31.70;;;18.60;;
5718;SDS011;2884;47.734;9.244;2023-02-24T10:45:31;27.87;;;18.20;;
5718;SDS011;2884;47.734;9.244;2023-02-24T10:48:14;21.77;;;12.70;;
5718;SDS011;2884;47.734;9.244;2023-02-24T10:50:50;18.77;;;12.27;;
5718;SDS011;2884;47.734;9.244;2023-02-24T10:53:22;21.20;;;11.97;;
5718;SDS011;2884;47.734;9.244;2023-02-24T10:55:57;24.63;;;12.20;;
5718;SDS011;2884;47.734;9.244;2023-02-24T10:58:47;22.67;;;9.50;;
5718;SDS011;2884;47.734;9.244;2023-02-24T11:01:32;18.30;;;10.70;;
5718;SDS011;2884;47.734;9.244;2023-02-24T11:04:17;15.57;;;11.10;;
5718;SDS011;2884;47.734;9.244;2023-02-24T11:07:02;23.03;;;12.03;;
5718;SDS011;2884;47.734;9.244;2023-02-24T11:09:35;18.40;;;11.23;;
5718;SDS011;2884;47.734;9.244;2023-02-24T11:12:15;27.63;;;10.40;;
5718;SDS011;2884;47.734;9.244;2023-02-24T11:15:04;21.40;;;10.53;;
5718;SDS011;2884;47.734;9.244;2023-02-24T11:17:58;14.13;;;8.53;;
5718;SDS011;2884;47.734;9.244;2023-02-24T11:20:40;12.43;;;9.00;;
5718;SDS011;2884;47.734;9.244;2023-02-24T11:23:08;16.77;;;9.80;;
5718;SDS011;2884;47.734;9.244;2023-02-24T11:25:45;16.67;;;9.63;;
5718;SDS011;2884;47.734;9.244;2023-02-24T11:31:31;19.27;;;10.77;;
5718;SDS011;2884;47.734;9.244;2023-02-24T11:42:19;22.83;;;12.43;;
5718;SDS011;2884;47.734;9.244;2023-02-24T11:47:47;19.83;;;11.50;;
5718;SDS011;2884;47.734;9.244;2023-02-24T11:52:47;20.83;;;11.87;;
5718;SDS011;2884;47.734;9.244;2023-02-24T11:56:00;22.63;;;12.00;;
5718;SDS011;2884;47.734;9.244;2023-02-24T11:58:07;25.33;;;12.23;;
5718;SDS011;2884;47.734;9.244;2023-02-24T12:00:39;20.23;;;12.10;;
5718;SDS011;2884;47.734;9.244;2023-02-24T12:03:12;20.87;;;13.73;;
5718;SDS011;2884;47.734;9.244;2023-02-24T12:05:43;19.27;;;12.43;;
5718;SDS011;2884;47.734;9.244;2023-02-24T12:08:27;26.27;;;12.07;;
5718;SDS011;2884;47.734;9.244;2023-02-24T12:11:02;19.43;;;11.87;;
5718;SDS011;2884;47.734;9.244;2023-02-24T12:18:47;17.93;;;11.10;;
5718;SDS011;2884;47.734;9.244;2023-02-24T12:21:35;24.07;;;11.97;;
5718;SDS011;2884;47.734;9.244;2023-02-24T12:24:24;23.60;;;12.50;;
5718;SDS011;2884;47.734;9.244;2023-02-24T12:26:54;21.60;;;13.07;;
5718;SDS011;2884;47.734;9.244;2023-02-24T12:29:52;18.97;;;11.77;;
5718;SDS011;2884;47.734;9.244;2023-02-24T12:32:59;21.23;;;10.80;;
5718;SDS011;2884;47.734;9.244;2023-02-24T12:39:04;16.67;;;11.03;;
5718;SDS011;2884;47.734;9.244;2023-02-24T12:41:41;18.20;;;11.63;;
5718;SDS011;2884;47.734;9.244;2023-02-24T12:44:32;21.27;;;11.27;;
5718;SDS011;2884;47.734;9.244;2023-02-24T12:47:10;18.27;;;11.47;;
5718;SDS011;2884;47.734;9.244;2023-02-24T12:49:42;21.97;;;12.00;;
5718;SDS011;2884;47.734;9.244;2023-02-24T12:57:33;22.40;;;11.67;;
5718;SDS011;2884;47.734;9.244;2023-02-24T13:00:23;16.60;;;11.47;;
5718;SDS011;2884;47.734;9.244;2023-02-24T13:02:58;21.03;;;11.90;;
5718;SDS011;2884;47.734;9.244;2023-02-24T13:05:40;17.23;;;11.03;;
5718;SDS011;2884;47.734;9.244;2023-02-24T13:14:21;21.60;;;11.63;;
5718;SDS011;2884;47.734;9.244;2023-02-24T13:16:39;22.43;;;11.53;;
5718;SDS011;2884;47.734;9.244;2023-02-24T13:24:36;26.57;;;12.17;;
5718;SDS011;2884;47.734;9.244;2023-02-24T13:27:25;19.33;;;10.83;;
5718;SDS011;2884;47.734;9.244;2023-02-24T13:30:01;21.10;;;11.87;;
5718;SDS011;2884;47.734;9.244;2023-02-24T13:32:32;20.50;;;11.80;;
5718;SDS011;2884;47.734;9.244;2023-02-24T13:37:39;19.00;;;11.50;;
5718;SDS011;2884;47.734;9.244;2023-02-24T13:45:21;21.67;;;12.30;;
5718;SDS011;2884;47.734;9.244;2023-02-24T14:01:09;21.97;;;12.33;;
5718;SDS011;2884;47.734;9.244;2023-02-24T14:03:38;21.93;;;12.67;;
5718;SDS011;2884;47.734;9.244;2023-02-24T14:06:12;21.07;;;11.80;;
5718;SDS011;2884;47.734;9.244;2023-02-24T14:08:51;26.53;;;13.33;;
5718;SDS011;2884;47.734;9.244;2023-02-24T14:11:21;20.13;;;12.00;;
5718;SDS011;2884;47.734;9.244;2023-02-24T14:13:50;17.43;;;11.67;;
5718;SDS011;2884;47.734;9.244;2023-02-24T14:16:19;20.13;;;12.33;;
5718;SDS011;2884;47.734;9.244;2023-02-24T14:18:53;23.43;;;13.13;;
5718;SDS011;2884;47.734;9.244;2023-02-24T14:21:21;23.30;;;14.00;;
5718;SDS011;2884;47.734;9.244;2023-02-24T14:23:56;16.17;;;11.70;;
5718;SDS011;2884;47.734;9.244;2023-02-24T14:26:23;29.00;;;13.77;;
5718;SDS011;2884;47.734;9.244;2023-02-24T14:28:51;24.60;;;11.57;;
5718;SDS011;2884;47.734;9.244;2023-02-24T14:31:20;24.80;;;12.80;;
5718;SDS011;2884;47.734;9.244;2023-02-24T14:33:47;21.90;;;11.63;;
5718;SDS011;2884;47.734;9.244;2023-02-24T14:36:27;21.27;;;12.53;;
5718;SDS011;2884;47.734;9.244;2023-02-24T14:38:59;21.83;;;13.20;;
5718;SDS011;2884;47.734;9.244;2023-02-24T14:41:32;20.97;;;13.23;;
5718;SDS011;2884;47.734;9.244;2023-02-24T14:44:03;21.10;;;13.20;;
5718;SDS011;2884;47.734;9.244;2023-02-24T14:46:49;23.40;;;12.00;;
5718;SDS011;2884;47.734;9.244;2023-02-24T14:49:17;24.57;;;14.00;;
5718;SDS011;2884;47.734;9.244;2023-02-24T14:51:45;24.33;;;15.37;;
5718;SDS011;2884;47.734;9.244;2023-02-24T14:54:13;28.33;;;15.97;;
5718;SDS011;2884;47.734;9.244;2023-02-24T14:56:44;24.93;;;15.93;;
5718;SDS011;2884;47.734;9.244;2023-02-24T15:01:52;27.13;;;14.97;;
5718;SDS011;2884;47.734;9.244;2023-02-24T15:04:25;20.60;;;13.70;;
5718;SDS011;2884;47.734;9.244;2023-02-24T15:06:56;27.00;;;14.00;;
5718;SDS011;2884;47.734;9.244;2023-02-24T15:09:24;19.17;;;12.97;;
5718;SDS011;2884;47.734;9.244;2023-02-24T15:11:52;24.13;;;14.30;;
5718;SDS011;2884;47.734;9.244;2023-02-24T15:14:29;18.20;;;12.10;;
5718;SDS011;2884;47.734;9.244;2023-02-24T15:16:56;20.10;;;11.90;;
5718;SDS011;2884;47.734;9.244;2023-02-24T15:19:31;19.67;;;12.60;;
5718;SDS011;2884;47.734;9.244;2023-02-24T15:22:30;22.40;;;12.77;;
5718;SDS011;2884;47.734;9.244;2023-02-24T15:27:48;20.67;;;12.87;;
5718;SDS011;2884;47.734;9.244;2023-02-24T15:33:22;25.23;;;14.10;;
5718;SDS011;2884;47.734;9.244;2023-02-24T15:35:52;24.67;;;15.07;;
5718;SDS011;2884;47.734;9.244;2023-02-24T15:38:21;24.40;;;14.47;;
5718;SDS011;2884;47.734;9.244;2023-02-24T15:40:52;30.10;;;17.20;;
5718;SDS011;2884;47.734;9.244;2023-02-24T15:43:30;26.73;;;15.30;;
5718;SDS011;2884;47.734;9.244;2023-02-24T15:48:53;26.97;;;12.97;;
5718;SDS011;2884;47.734;9.244;2023-02-24T15:51:39;20.80;;;12.37;;
5718;SDS011;2884;47.734;9.244;2023-02-24T15:54:07;20.13;;;13.00;;
5718;SDS011;2884;47.734;9.244;2023-02-24T15:56:37;17.47;;;12.50;;
5718;SDS011;2884;47.734;9.244;2023-02-24T15:59:03;18.77;;;12.17;;
5718;SDS011;2884;47.734;9.244;2023-02-24T16:01:30;24.17;;;13.07;;
5718;SDS011;2884;47.734;9.244;2023-02-24T16:03:57;21.40;;;13.63;;
5718;SDS011;2884;47.734;9.244;2023-02-24T16:06:23;27.87;;;16.80;;
5718;SDS011;2884;47.734;9.244;2023-02-24T16:08:49;26.50;;;13.90;;
5718;SDS011;2884;47.734;9.244;2023-02-24T16:11:18;30.70;;;17.43;;
5718;SDS011;2884;47.734;9.244;2023-02-24T16:13:52;23.20;;;14.40;;
5718;SDS011;2884;47.734;9.244;2023-02-24T16:16:21;23.10;;;14.60;;
5718;SDS011;2884;47.734;9.244;2023-02-24T16:18:50;22.23;;;14.77;;
5718;SDS011;2884;47.734;9.244;2023-02-24T16:21:15;27.57;;;15.67;;
5718;SDS011;2884;47.734;9.244;2023-02-24T16:23:41;27.17;;;16.27;;
5718;SDS011;2884;47.734;9.244;2023-02-24T16:26:11;25.50;;;15.20;;
5718;SDS011;2884;47.734;9.244;2023-02-24T16:28:39;25.60;;;15.50;;
5718;SDS011;2884;47.734;9.244;2023-02-24T16:31:07;24.00;;;17.50;;
5718;SDS011;2884;47.734;9.244;2023-02-24T16:33:33;30.27;;;19.87;;
5718;SDS011;2884;47.734;9.244;2023-02-24T16:35:59;26.60;;;16.40;;
5718;SDS011;2884;47.734;9.244;2023-02-24T16:38:25;24.70;;;14.53;;
5718;SDS011;2884;47.734;9.244;2023-02-24T16:40:51;24.90;;;15.03;;
5718;SDS011;2884;47.734;9.244;2023-02-24T16:43:17;28.33;;;12.97;;
5718;SDS011;2884;47.734;9.244;2023-02-24T16:45:43;29.30;;;16.00;;
5718;SDS011;2884;47.734;9.244;2023-02-24T16:48:14;28.17;;;16.07;;
5718;SDS011;2884;47.734;9.244;2023-02-24T16:50:46;31.47;;;17.83;;
5718;SDS011;2884;47.734;9.244;2023-02-24T16:53:13;26.83;;;16.30;;
5718;SDS011;2884;47.734;9.244;2023-02-24T16:55:41;30.47;;;16.80;;
5718;SDS011;2884;47.734;9.244;2023-02-24T16:58:08;29.30;;;17.10;;
5718;SDS011;2884;47.734;9.244;2023-02-24T17:00:34;27.07;;;15.87;;
5718;SDS011;2884;47.734;9.244;2023-02-24T17:03:01;25.53;;;15.30;;
5718;SDS011;2884;47.734;9.244;2023-02-24T17:05:29;26.13;;;14.67;;
5718;SDS011;2884;47.734;9.244;2023-02-24T17:07:55;29.03;;;14.97;;
5718;SDS011;2884;47.734;9.244;2023-02-24T17:10:21;20.83;;;12.63;;
5718;SDS011;2884;47.734;9.244;2023-02-24T17:12:48;28.90;;;15.83;;
5718;SDS011;2884;47.734;9.244;2023-02-24T17:15:18;33.00;;;14.90;;
5718;SDS011;2884;47.734;9.244;2023-02-24T17:17:45;23.07;;;13.90;;
5718;SDS011;2884;47.734;9.244;2023-02-24T17:20:16;25.13;;;10.23;;
5718;SDS011;2884;47.734;9.244;2023-02-24T17:22:43;21.70;;;9.90;;
5718;SDS011;2884;47.734;9.244;2023-02-24T17:25:13;27.90;;;10.33;;
5718;SDS011;2884;47.734;9.244;2023-02-24T17:27:41;28.10;;;11.50;;
5718;SDS011;2884;47.734;9.244;2023-02-24T17:30:08;25.23;;;10.17;;
5718;SDS011;2884;47.734;9.244;2023-02-24T17:32:39;20.43;;;8.70;;
5718;SDS011;2884;47.734;9.244;2023-02-24T17:35:06;28.93;;;14.73;;
5718;SDS011;2884;47.734;9.244;2023-02-24T17:37:32;27.43;;;10.27;;
5718;SDS011;2884;47.734;9.244;2023-02-24T17:39:57;21.80;;;11.30;;
5718;SDS011;2884;47.734;9.244;2023-02-24T17:42:23;23.63;;;8.57;;
5718;SDS011;2884;47.734;9.244;2023-02-24T17:44:48;17.23;;;7.67;;
5718;SDS011;2884;47.734;9.244;2023-02-24T17:47:14;23.40;;;8.67;;
5718;SDS011;2884;47.734;9.244;2023-02-24T17:49:39;20.90;;;9.47;;
5718;SDS011;2884;47.734;9.244;2023-02-24T17:52:05;24.50;;;8.93;;
5718;SDS011;2884;47.734;9.244;2023-02-24T17:54:30;16.53;;;9.37;;
5718;SDS011;2884;47.734;9.244;2023-02-24T17:56:56;21.90;;;8.93;;
5718;SDS011;2884;47.734;9.244;2023-02-24T17:59:22;25.07;;;9.43;;
5718;SDS011;2884;47.734;9.244;2023-02-24T18:01:47;22.10;;;10.03;;
5718;SDS011;2884;47.734;9.244;2023-02-24T18:04:13;28.47;;;10.90;;
5718;SDS011;2884;47.734;9.244;2023-02-24T18:06:39;31.10;;;11.27;;
5718;SDS011;2884;47.734;9.244;2023-02-24T18:09:05;21.67;;;9.50;;
5718;SDS011;2884;47.734;9.244;2023-02-24T18:11:31;16.63;;;9.10;;
5718;SDS011;2884;47.734;9.244;2023-02-24T18:13:57;21.93;;;10.37;;
5718;SDS011;2884;47.734;9.244;2023-02-24T18:16:24;18.17;;;9.27;;
5718;SDS011;2884;47.734;9.244;2023-02-24T18:18:50;22.10;;;8.20;;
5718;SDS011;2884;47.734;9.244;2023-02-24T18:21:15;19.80;;;8.47;;
5718;SDS011;2884;47.734;9.244;2023-02-24T18:23:41;27.70;;;11.40;;
5718;SDS011;2884;47.734;9.244;2023-02-24T18:26:07;21.50;;;10.80;;
5718;SDS011;2884;47.734;9.244;2023-02-24T18:28:34;43.97;;;14.60;;
5718;SDS011;2884;47.734;9.244;2023-02-24T18:30:59;26.27;;;9.60;;
5718;SDS011;2884;47.734;9.244;2023-02-24T18:33:27;27.67;;;13.50;;
5718;SDS011;2884;47.734;9.244;2023-02-24T18:35:57;19.70;;;6.80;;
5718;SDS011;2884;47.734;9.244;2023-02-24T18:38:26;11.97;;;6.50;;
5718;SDS011;2884;47.734;9.244;2023-02-24T18:40:56;12.83;;;6.93;;
5718;SDS011;2884;47.734;9.244;2023-02-24T18:43:26;22.10;;;7.77;;
5718;SDS011;2884;47.734;9.244;2023-02-24T18:45:59;14.33;;;5.40;;
5718;SDS011;2884;47.734;9.244;2023-02-24T18:48:27;21.53;;;7.13;;
5718;SDS011;2884;47.734;9.244;2023-02-24T18:50:54;17.70;;;7.07;;
5718;SDS011;2884;47.734;9.244;2023-02-24T18:53:21;22.23;;;9.70;;
5718;SDS011;2884;47.734;9.244;2023-02-24T18:55:49;20.63;;;7.70;;
5718;SDS011;2884;47.734;9.244;2023-02-24T18:58:15;15.13;;;7.60;;